Time;durP1;ratioP1;P1;durP2;ratioP2;P2;SDS_P1;SDS_P2;PMS_P1;PMS_P2;Temp;Humidity;BMP_temperature;BMP_pressure;BME280_temperature;BME280_humidity;BME280_pressure;Samples;Min_cycle;Max_cycle;Signal;HPM_P1;HPM_P2
2021/12/02 00:03:21;;;;;;;8.43;6.17;;;4.80;99.90;;;;;;10564458;28;20195;-77
2021/12/02 00:08:45;;;;;;;7.40;5.67;;;4.80;99.90;;;;;;10549344;28;20220;-80
2021/12/02 00:14:11;;;;;;;5.20;4.50;;;;;;;;;;10563701;28;20414;-77
2021/12/02 00:25:14;;;;;;;5.70;4.00;;;5.20;99.90;;;;;;10563317;28;20440;-76
2021/12/02 00:30:37;;;;;;;4.53;2.83;;;5.20;99.90;;;;;;10545154;28;20544;-78
2021/12/02 00:36:00;;;;;;;3.80;2.87;;;5.20;99.90;;;;;;10548303;28;20216;-77
2021/12/02 00:41:24;;;;;;;5.10;3.27;;;5.20;99.90;;;;;;10547934;28;20483;-78
2021/12/02 00:46:47;;;;;;;2.50;2.10;;;5.30;99.90;;;;;;10554665;28;20224;-79
2021/12/02 00:52:09;;;;;;;4.77;2.17;;;5.30;99.90;;;;;;10544052;28;20269;-79
2021/12/02 00:57:32;;;;;;;3.93;2.10;;;5.30;99.90;;;;;;10524804;28;20232;-77
2021/12/02 01:02:54;;;;;;;2.63;1.57;;;5.30;99.90;;;;;;10547530;28;20245;-82
2021/12/02 01:08:19;;;;;;;2.23;1.40;;;5.30;99.90;;;;;;10562044;28;20217;-83
2021/12/02 01:13:41;;;;;;;2.60;1.50;;;5.30;99.90;;;;;;10561448;28;20216;-83
2021/12/02 01:19:07;;;;;;;2.70;1.27;;;5.20;99.90;;;;;;10546374;28;20197;-83
2021/12/02 01:24:30;;;;;;;2.80;1.10;;;5.10;99.90;;;;;;10543670;28;20208;-84
2021/12/02 01:29:53;;;;;;;3.07;1.50;;;5.10;99.90;;;;;;10561567;28;20192;-79
2021/12/02 01:35:18;;;;;;;3.57;0.80;;;5.10;99.90;;;;;;10544052;28;20213;-81
2021/12/02 01:40:45;;;;;;;1.33;1.07;;;5.10;99.90;;;;;;10561380;28;20227;-82
2021/12/02 01:46:07;;;;;;;1.73;0.90;;;5.00;99.90;;;;;;10542937;28;20233;-82
2021/12/02 01:51:31;;;;;;;1.83;0.80;;;5.00;99.90;;;;;;10547967;28;20228;-83
2021/12/02 01:57:22;;;;;;;4.73;0.90;;;5.00;99.90;;;;;;10560114;28;20304;-83
2021/12/02 02:02:44;;;;;;;1.33;0.80;;;5.00;58.80;;;;;;10527685;28;20200;-82
2021/12/02 02:08:17;;;;;;;3.67;1.10;;;4.90;65.10;;;;;;10560923;28;20291;-84
2021/12/02 02:13:42;;;;;;;1.73;1.23;;;4.70;81.40;;;;;;10561668;28;20400;-83
2021/12/02 02:19:06;;;;;;;2.33;1.33;;;4.50;97.10;;;;;;10538239;28;20282;-83
2021/12/02 02:24:29;;;;;;;3.60;1.20;;;4.40;99.90;;;;;;10566493;28;20202;-82
2021/12/02 02:29:51;;;;;;;1.83;1.27;;;4.30;99.90;;;;;;10535792;28;20227;-83
2021/12/02 02:35:13;;;;;;;2.07;1.00;;;4.20;99.90;;;;;;10550208;28;20210;-83
2021/12/02 02:40:39;;;;;;;3.50;0.80;;;4.10;99.90;;;;;;10549974;28;20322;-84
2021/12/02 02:46:01;;;;;;;5.17;0.90;;;4.10;99.90;;;;;;10564199;28;20211;-77
2021/12/02 02:51:24;;;;;;;3.17;0.90;;;4.10;96.50;;;;;;10564372;28;20191;-77
2021/12/02 02:56:53;;;;;;;4.23;0.90;;;4.10;94.50;;;;;;10567566;28;20195;-78
2021/12/02 03:07:44;;;;;;;0.83;0.73;;;4.10;93.30;;;;;;10566543;28;20575;-80
2021/12/02 03:13:20;;;;;;;0.70;0.70;;;4.00;90.60;;;;;;10566704;28;20265;-77
2021/12/02 03:18:43;;;;;;;2.33;1.73;;;3.90;92.00;;;;;;10550822;28;20240;-84
2021/12/02 03:24:06;;;;;;;0.90;0.80;;;3.60;99.90;;;;;;10534608;28;20203;-82
2021/12/02 03:29:28;;;;;;;3.93;1.53;;;3.60;99.90;;;;;;10546097;28;20289;-84
2021/12/02 03:34:50;;;;;;;1.33;0.60;;;3.60;99.90;;;;;;10565084;28;20210;-82
2021/12/02 03:40:13;;;;;;;1.20;0.63;;;3.70;96.80;;;;;;10533818;28;20244;-84
2021/12/02 03:45:37;;;;;;;0.63;0.60;;;3.80;99.40;;;;;;10576653;28;20227;-80
2021/12/02 03:51:00;;;;;;;4.40;0.50;;;3.80;99.90;;;;;;10570189;28;20520;-81
2021/12/02 03:56:23;;;;;;;3.17;0.63;;;3.50;99.90;;;;;;10565223;28;20197;-83
2021/12/02 04:01:45;;;;;;;0.83;0.50;;;3.20;99.90;;;;;;10530716;28;20208;-82
2021/12/02 04:07:07;;;;;;;0.67;0.47;;;3.10;99.90;;;;;;10564738;28;20575;-85
2021/12/02 04:18:09;;;;;;;0.30;0.30;;;3.10;99.90;;;;;;10561460;28;20203;-82
2021/12/02 04:23:31;;;;;;;1.50;0.40;;;3.00;99.90;;;;;;10552064;28;20492;-81
2021/12/02 04:28:53;;;;;;;0.77;0.60;;;2.80;99.90;;;;;;10530054;28;20287;-84
2021/12/02 04:34:16;;;;;;;1.10;0.70;;;2.70;99.90;;;;;;10563349;28;20199;-82
2021/12/02 04:39:39;;;;;;;0.70;0.70;;;2.40;99.90;;;;;;10563449;28;20505;-82
2021/12/02 04:45:01;;;;;;;0.57;0.57;;;2.40;99.90;;;;;;10563226;28;20221;-84
2021/12/02 04:50:23;;;;;;;0.70;0.70;;;2.40;99.90;;;;;;10562465;28;20262;-76
2021/12/02 04:55:45;;;;;;;0.50;0.50;;;2.30;99.90;;;;;;10526684;28;20211;-78
2021/12/02 05:01:07;;;;;;;0.60;0.53;;;2.20;96.90;;;;;;10530318;28;20249;-76
2021/12/02 05:06:29;;;;;;;1.17;0.70;;;2.20;94.70;;;;;;10543763;28;20224;-76
2021/12/02 05:11:51;;;;;;;1.40;0.97;;;2.10;78.30;;;;;;10543762;28;20425;-76
2021/12/02 05:17:13;;;;;;;1.40;0.80;;;2.00;67.30;;;;;;10546487;28;20196;-77
2021/12/02 05:22:35;;;;;;;3.80;1.27;;;2.00;65.30;;;;;;10512903;28;20209;-76
2021/12/02 05:27:57;;;;;;;0.83;0.67;;;1.90;73.80;;;;;;10562111;28;20407;-83
2021/12/02 05:33:19;;;;;;;0.80;0.60;;;2.00;76.50;;;;;;10547568;28;20481;-83
2021/12/02 05:38:42;;;;;;;0.97;0.80;;;1.90;84.70;;;;;;10545026;28;20230;-80
2021/12/02 05:44:04;;;;;;;1.43;1.00;;;1.90;74.50;;;;;;10563273;28;20196;-84
2021/12/02 05:49:27;;;;;;;3.77;1.60;;;1.80;92.40;;;;;;10537198;28;20224;-78
2021/12/02 05:54:50;;;;;;;0.80;0.80;;;1.70;98.90;;;;;;10552067;28;20204;-78
2021/12/02 06:00:12;;;;;;;5.03;1.90;;;1.50;99.90;;;;;;10568320;28;20194;-79
2021/12/02 06:05:35;;;;;;;5.80;1.70;;;1.50;99.90;;;;;;10568995;28;20494;-76
2021/12/02 06:10:57;;;;;;;5.03;2.60;;;1.60;99.90;;;;;;10551015;28;20200;-77
2021/12/02 06:16:21;;;;;;;3.00;2.00;;;1.50;99.90;;;;;;10550542;28;20204;-75
2021/12/02 06:21:43;;;;;;;2.90;1.60;;;1.40;99.90;;;;;;10568069;28;20464;-77
2021/12/02 06:27:06;;;;;;;4.03;2.20;;;1.40;99.90;;;;;;10567942;28;20219;-74
2021/12/02 06:32:27;;;;;;;2.97;2.50;;;1.50;99.90;;;;;;10549797;28;20205;-76
2021/12/02 06:37:50;;;;;;;8.60;4.00;;;1.50;99.90;;;;;;10552463;28;20644;-75
2021/12/02 06:43:14;;;;;;;2.43;1.80;;;1.50;99.90;;;;;;10567417;28;20200;-76
2021/12/02 06:48:36;;;;;;;6.23;3.90;;;1.60;99.90;;;;;;10551743;28;20458;-78
2021/12/02 06:53:59;;;;;;;7.90;4.67;;;1.70;99.90;;;;;;10535093;28;20284;-79
2021/12/02 06:59:31;;;;;;;6.80;3.80;;;1.70;99.90;;;;;;10566836;28;20212;-81
2021/12/02 07:04:55;;;;;;;4.13;1.50;;;1.70;99.90;;;;;;10547639;28;20191;-78
2021/12/02 07:10:24;;;;;;;3.70;1.60;;;1.70;99.90;;;;;;10547136;28;20238;-77
2021/12/02 07:15:54;;;;;;;4.70;2.47;;;1.70;99.90;;;;;;10566077;28;20196;-78
2021/12/02 07:21:15;;;;;;;15.37;7.97;;;1.70;99.90;;;;;;10564788;28;20289;-78
2021/12/02 07:26:40;;;;;;;13.70;6.97;;;1.70;99.90;;;;;;10547423;28;20298;-79
2021/12/02 07:32:04;;;;;;;15.13;6.67;;;1.60;99.90;;;;;;10547697;28;20249;-79
2021/12/02 07:37:26;;;;;;;7.93;4.50;;;1.60;99.90;;;;;;10545451;28;20242;-78
2021/12/02 07:42:53;;;;;;;6.53;3.43;;;1.60;99.90;;;;;;10549731;28;20204;-79
2021/12/02 07:48:17;;;;;;;2.50;1.70;;;1.60;99.90;;;;;;10564032;28;20218;-77
2021/12/02 07:53:41;;;;;;;5.00;1.80;;;1.60;93.30;;;;;;10565015;28;20201;-81
2021/12/02 07:59:03;;;;;;;4.63;2.90;;;1.60;94.10;;;;;;10549908;28;20603;-80
2021/12/02 08:04:25;;;;;;;7.77;5.63;;;1.60;94.80;;;;;;10535569;28;20197;-81
2021/12/02 08:09:47;;;;;;;7.60;3.33;;;1.60;96.40;;;;;;10518841;28;20264;-83
2021/12/02 08:15:09;;;;;;;3.47;2.03;;;1.60;94.70;;;;;;10545501;28;20197;-87
2021/12/02 08:20:33;;;;;;;3.60;2.30;;;1.70;95.70;;;;;;10534484;28;20200;-86
2021/12/02 08:25:55;;;;;;;13.43;5.83;;;1.80;96.40;;;;;;10526928;28;20233;-84
2021/12/02 08:31:18;;;;;;;3.90;1.87;;;1.80;96.80;;;;;;10497594;28;20220;-86
2021/12/02 08:36:43;;;;;;;3.50;2.20;;;1.90;99.90;;;;;;10535970;28;20305;-81
2021/12/02 08:42:06;;;;;;;21.43;6.67;;;1.90;99.90;;;;;;10524001;28;20250;-86
2021/12/02 08:47:28;;;;;;;9.07;3.87;;;1.90;99.90;;;;;;10527116;28;20237;-80
2021/12/02 08:52:52;;;;;;;19.87;9.50;;;2.00;99.90;;;;;;10529406;28;20205;-79
2021/12/02 08:58:14;;;;;;;4.60;2.00;;;2.00;99.90;;;;;;10554314;28;20244;-76
2021/12/02 09:03:38;;;;;;;37.77;18.80;;;2.20;92.50;;;;;;10525396;28;20224;-81
2021/12/02 09:09:01;;;;;;;6.27;2.70;;;2.50;64.90;;;;;;10525346;28;20262;-75
2021/12/02 09:14:23;;;;;;;2.83;1.63;;;2.30;79.00;;;;;;10542708;28;20200;-76
2021/12/02 09:19:46;;;;;;;3.57;2.27;;;2.30;76.00;;;;;;10505785;28;20413;-74
2021/12/02 09:25:09;;;;;;;3.93;2.23;;;2.40;77.40;;;;;;10540956;28;20374;-77
2021/12/02 09:30:32;;;;;;;1.30;1.20;;;2.20;75.70;;;;;;10522888;28;20468;-84
2021/12/02 09:35:54;;;;;;;3.03;1.80;;;2.30;77.80;;;;;;10556686;28;20213;-83
2021/12/02 09:41:16;;;;;;;5.57;2.33;;;2.30;78.00;;;;;;10557484;28;20236;-79
2021/12/02 09:46:40;;;;;;;5.53;2.30;;;2.40;78.90;;;;;;10555697;28;20441;-77
2021/12/02 09:52:04;;;;;;;5.97;2.87;;;2.40;99.40;;;;;;10521812;28;20311;-78
2021/12/02 09:57:33;;;;;;;2.80;1.77;;;2.40;98.20;;;;;;10518307;28;20227;-78
2021/12/02 10:03:00;;;;;;;1.07;0.97;;;2.40;98.30;;;;;;10539180;28;20224;-83
2021/12/02 10:08:26;;;;;;;1.10;1.00;;;2.40;97.70;;;;;;10510655;28;20232;-88
2021/12/02 10:13:59;;;;;;;1.40;1.30;;;2.40;97.70;;;;;;10524550;28;20211;-84
2021/12/02 10:19:26;;;;;;;4.57;1.27;;;2.40;97.90;;;;;;10524273;28;20208;-84
2021/12/02 10:24:47;;;;;;;1.90;0.90;;;2.40;97.60;;;;;;10536913;28;20284;-80
2021/12/02 10:30:24;;;;;;;3.10;1.20;;;2.40;98.20;;;;;;10536831;28;20243;-83
2021/12/02 10:35:49;;;;;;;3.20;1.80;;;2.40;98.00;;;;;;10507820;28;20409;-84
2021/12/02 10:41:16;;;;;;;1.70;1.10;;;2.40;96.70;;;;;;10523510;28;20301;-83
2021/12/02 10:47:03;;;;;;;1.80;1.20;;;2.40;98.90;;;;;;10527841;28;20222;-83
2021/12/02 10:52:28;;;;;;;3.53;1.30;;;2.40;96.50;;;;;;10563204;28;20248;-83
2021/12/02 10:57:54;;;;;;;2.03;1.30;;;2.50;97.40;;;;;;10531083;28;20220;-78
2021/12/02 11:03:16;;;;;;;3.53;1.37;;;2.50;96.20;;;;;;10523939;28;20233;-79
2021/12/02 11:08:38;;;;;;;1.23;1.03;;;2.50;99.90;;;;;;10528495;28;20301;-79
2021/12/02 11:14:11;;;;;;;3.30;1.27;;;2.50;97.50;;;;;;10544595;28;20204;-82
2021/12/02 11:19:34;;;;;;;1.43;1.00;;;2.60;98.80;;;;;;10530089;28;20206;-84
2021/12/02 11:24:58;;;;;;;3.40;0.83;;;2.70;99.00;;;;;;10543879;28;20239;-81
2021/12/02 11:30:28;;;;;;;1.77;0.97;;;2.70;99.40;;;;;;10536141;28;20236;-79
2021/12/02 11:35:51;;;;;;;5.87;1.97;;;2.70;93.00;;;;;;10529589;28;20211;-80
2021/12/02 11:41:14;;;;;;;2.90;1.90;;;2.70;93.00;;;;;;10483792;28;20725;-91
2021/12/02 11:46:36;;;;;;;1.07;0.93;;;2.60;91.90;;;;;;10490006;28;20257;-84
2021/12/02 11:51:58;;;;;;;1.40;0.93;;;2.60;79.60;;;;;;10504004;28;20258;-79
2021/12/02 11:57:22;;;;;;;1.13;0.80;;;2.60;93.50;;;;;;10504768;28;20225;-82
2021/12/02 12:03:02;;;;;;;3.17;1.57;;;2.60;80.60;;;;;;10510826;28;20262;-89
2021/12/02 12:08:42;;;;;;;2.63;1.27;;;2.60;90.30;;;;;;10517375;28;20227;-82
2021/12/02 12:14:12;;;;;;;5.87;1.87;;;2.80;90.70;;;;;;10486326;28;20397;-83
2021/12/02 12:19:40;;;;;;;3.33;1.67;;;2.80;91.40;;;;;;10500682;28;20203;-89
2021/12/02 12:25:06;;;;;;;2.60;1.40;;;2.60;85.30;;;;;;10502417;28;20524;-85
2021/12/02 12:30:36;;;;;;;8.30;2.23;;;2.50;85.10;;;;;;10488006;28;20252;-83
2021/12/02 12:36:08;;;;;;;1.83;1.30;;;2.50;88.70;;;;;;10467308;28;20259;-78
2021/12/02 12:41:30;;;;;;;3.50;1.20;;;2.40;84.90;;;;;;10500372;28;20215;-80
2021/12/02 12:46:55;;;;;;;4.83;1.40;;;2.40;86.40;;;;;;10516011;28;20220;-82
2021/12/02 12:52:19;;;;;;;2.53;1.20;;;2.40;90.00;;;;;;10501301;28;20212;-84
2021/12/02 12:58:10;;;;;;;2.53;1.40;;;2.50;92.40;;;;;;10501091;28;20233;-84
2021/12/02 13:03:46;;;;;;;1.87;1.43;;;2.30;93.10;;;;;;10511708;28;20280;-82
2021/12/02 13:09:08;;;;;;;3.27;1.87;;;2.40;90.00;;;;;;10499200;28;20253;-82
2021/12/02 13:14:30;;;;;;;4.20;1.40;;;2.40;93.50;;;;;;10514928;28;20271;-80
2021/12/02 13:19:59;;;;;;;1.47;1.37;;;2.40;95.00;;;;;;10515583;28;20232;-81
2021/12/02 13:25:27;;;;;;;2.03;1.03;;;2.30;97.30;;;;;;10486080;28;20199;-86
2021/12/02 13:30:53;;;;;;;3.27;1.00;;;2.40;91.00;;;;;;10479212;28;20245;-86
2021/12/02 13:36:20;;;;;;;3.10;1.20;;;2.40;91.30;;;;;;10513602;28;20225;-83
2021/12/02 13:42:01;;;;;;;3.57;1.70;;;2.30;96.40;;;;;;10445951;28;20409;-85
2021/12/02 13:47:31;;;;;;;3.13;1.30;;;2.30;99.90;;;;;;10453785;28;20298;-86
2021/12/02 13:52:54;;;;;;;1.60;1.00;;;2.20;99.90;;;;;;10443359;28;20253;-78
2021/12/02 13:58:28;;;;;;;1.70;1.30;;;2.20;99.90;;;;;;10471750;28;20508;-78
2021/12/02 14:03:50;;;;;;;2.17;1.83;;;2.20;99.90;;;;;;10458652;28;20207;-84
2021/12/02 14:09:17;;;;;;;2.60;1.20;;;2.10;99.90;;;;;;10444290;28;20251;-85
2021/12/02 14:15:04;;;;;;;2.53;1.07;;;2.10;99.90;;;;;;10458430;28;20199;-89
2021/12/02 14:20:40;;;;;;;3.40;2.07;;;2.10;99.90;;;;;;10450064;28;20241;-91
2021/12/02 14:26:14;;;;;;;4.13;1.00;;;2.10;99.90;;;;;;10453527;28;20283;-86
2021/12/02 14:31:38;;;;;;;4.63;2.07;;;2.10;99.90;;;;;;10462981;28;20261;-78
2021/12/02 14:37:00;;;;;;;3.70;1.90;;;2.00;99.90;;;;;;10491060;28;20243;-78
2021/12/02 14:42:22;;;;;;;1.70;1.10;;;1.90;99.90;;;;;;10531208;28;20201;-86
2021/12/02 14:47:46;;;;;;;1.67;1.10;;;1.90;99.90;;;;;;10533093;28;20221;-78
2021/12/02 14:53:26;;;;;;;2.67;1.67;;;1.90;99.90;;;;;;10529006;28;20415;-84
2021/12/02 14:59:12;;;;;;;6.17;2.87;;;1.90;99.90;;;;;;10546566;28;20515;-79
2021/12/02 15:04:49;;;;;;;3.60;1.77;;;1.80;99.90;;;;;;10544435;28;20211;-80
2021/12/02 15:10:18;;;;;;;3.80;2.07;;;1.70;99.90;;;;;;10546415;28;20278;-82
2021/12/02 15:15:44;;;;;;;2.60;1.60;;;1.80;99.90;;;;;;10534237;28;20270;-87
2021/12/02 15:21:07;;;;;;;4.93;1.80;;;1.80;99.90;;;;;;10526610;28;20201;-78
2021/12/02 15:26:29;;;;;;;4.30;1.97;;;1.80;99.90;;;;;;10515193;28;20243;-86
2021/12/02 15:31:51;;;;;;;3.57;1.63;;;1.70;99.90;;;;;;10525058;28;20235;-79
2021/12/02 15:37:15;;;;;;;3.87;1.80;;;1.80;99.90;;;;;;10544810;28;20246;-82
2021/12/02 15:42:37;;;;;;;4.23;2.97;;;1.80;99.90;;;;;;10544471;28;20753;-77
2021/12/02 15:47:59;;;;;;;1.90;1.40;;;1.80;99.90;;;;;;10495264;28;20260;-79
2021/12/02 15:53:23;;;;;;;15.13;6.83;;;1.80;99.90;;;;;;10543611;28;20205;-79
2021/12/02 15:58:46;;;;;;;2.53;1.73;;;1.80;99.90;;;;;;10545135;28;20206;-80
2021/12/02 16:04:14;;;;;;;3.30;1.93;;;1.80;99.90;;;;;;10559782;28;20196;-82
2021/12/02 16:15:05;;;;;;;3.03;1.93;;;1.80;99.90;;;;;;10563497;28;20198;-78
2021/12/02 16:20:27;;;;;;;3.43;2.60;;;1.80;99.90;;;;;;10563327;28;20202;-78
2021/12/02 16:25:49;;;;;;;6.47;3.13;;;1.80;99.90;;;;;;10563438;28;20240;-78
2021/12/02 16:31:12;;;;;;;5.07;3.30;;;1.80;99.90;;;;;;10531378;28;20226;-77
2021/12/02 16:36:36;;;;;;;3.70;2.30;;;1.80;99.90;;;;;;10562842;28;20206;-77
2021/12/02 16:41:58;;;;;;;2.80;2.03;;;1.80;99.90;;;;;;10528358;28;20201;-78
2021/12/02 16:47:20;;;;;;;5.13;2.33;;;1.80;99.90;;;;;;10562875;28;20218;-80
2021/12/02 16:52:43;;;;;;;3.27;2.20;;;1.80;99.90;;;;;;10562003;28;20224;-81
2021/12/02 16:58:07;;;;;;;4.37;2.37;;;1.80;99.90;;;;;;10562583;28;20190;-79
2021/12/02 17:03:29;;;;;;;5.63;3.13;;;1.70;99.90;;;;;;10530465;28;20228;-76
2021/12/02 17:09:12;;;;;;;7.30;3.40;;;1.80;99.90;;;;;;10529696;28;20225;-77
2021/12/02 17:14:35;;;;;;;5.53;2.70;;;1.80;99.90;;;;;;10542476;28;20194;-76
2021/12/02 17:19:58;;;;;;;10.13;4.70;;;1.80;99.90;;;;;;10561240;28;20201;-80
2021/12/02 17:25:23;;;;;;;8.63;3.73;;;1.80;99.90;;;;;;10547441;28;20242;-80
2021/12/02 17:30:46;;;;;;;4.50;2.30;;;1.80;99.90;;;;;;10529012;28;20267;-78
2021/12/02 17:36:09;;;;;;;6.93;2.67;;;1.80;99.90;;;;;;10543245;28;20198;-80
2021/12/02 17:41:32;;;;;;;3.57;2.00;;;1.70;99.90;;;;;;10529470;28;20244;-78
2021/12/02 17:46:56;;;;;;;4.57;2.00;;;1.80;99.90;;;;;;10543425;28;20203;-78
2021/12/02 17:52:18;;;;;;;7.40;2.90;;;1.80;99.90;;;;;;10548192;28;20206;-79
2021/12/02 17:57:41;;;;;;;7.87;3.33;;;1.80;99.90;;;;;;10554734;28;20228;-79
2021/12/02 18:03:10;;;;;;;6.00;2.80;;;1.80;99.90;;;;;;10538538;28;20209;-81
2021/12/02 18:08:32;;;;;;;8.93;2.13;;;1.80;99.90;;;;;;10554265;28;20440;-81
2021/12/02 18:13:55;;;;;;;10.33;2.40;;;1.80;99.90;;;;;;10537146;28;20201;-78
2021/12/02 18:19:17;;;;;;;6.07;2.13;;;1.80;99.90;;;;;;10537373;28;20202;-79
2021/12/02 18:24:39;;;;;;;10.73;2.40;;;1.70;99.90;;;;;;10542078;28;20194;-80
2021/12/02 18:30:01;;;;;;;5.27;1.93;;;1.70;99.90;;;;;;10550374;28;20225;-80
2021/12/02 18:35:23;;;;;;;6.00;1.93;;;1.70;99.90;;;;;;10553003;28;20195;-78
2021/12/02 18:40:49;;;;;;;5.93;2.50;;;1.70;99.90;;;;;;10567808;28;20297;-81
2021/12/02 18:46:13;;;;;;;4.47;1.87;;;1.70;99.90;;;;;;10567664;28;20599;-81
2021/12/02 18:51:37;;;;;;;6.60;2.43;;;1.70;99.90;;;;;;10526911;28;20222;-78
2021/12/02 18:56:59;;;;;;;4.07;2.33;;;1.80;99.90;;;;;;10541957;28;20249;-80
2021/12/02 19:02:22;;;;;;;3.63;2.10;;;1.70;99.90;;;;;;10565847;28;20198;-80
2021/12/02 19:30:23;;;;;;;6.30;2.83;;;1.50;99.90;;;;;;10533785;28;20237;-77
2021/12/02 19:35:45;;;;;;;4.23;2.10;;;1.50;99.90;;;;;;10550810;28;20493;-79
2021/12/02 19:41:09;;;;;;;4.33;2.20;;;1.50;99.90;;;;;;10549611;28;20240;-77
2021/12/02 19:46:35;;;;;;;6.83;2.30;;;1.50;99.90;;;;;;10533378;28;20397;-77
2021/12/02 19:51:57;;;;;;;6.03;2.70;;;1.50;99.90;;;;;;10550145;28;20256;-80
2021/12/02 19:57:20;;;;;;;8.27;3.87;;;1.40;99.90;;;;;;10549926;28;20194;-81
2021/12/02 20:02:43;;;;;;;10.77;4.00;;;1.40;99.90;;;;;;10549800;28;20271;-80
2021/12/02 20:08:05;;;;;;;13.90;4.97;;;1.30;99.90;;;;;;10532369;28;20214;-80
2021/12/02 20:13:27;;;;;;;6.20;3.53;;;1.30;99.90;;;;;;10549071;28;20208;-80
2021/12/02 20:18:51;;;;;;;6.10;2.90;;;1.20;99.90;;;;;;10563622;28;20195;-80
2021/12/02 20:24:15;;;;;;;4.20;2.90;;;1.20;99.90;;;;;;10543349;28;20209;-81
2021/12/02 20:29:38;;;;;;;19.83;8.07;;;1.20;99.90;;;;;;10545321;28;20244;-80
2021/12/02 20:35:00;;;;;;;76.07;26.17;;;1.40;99.90;;;;;;10563685;28;20261;-78
2021/12/02 20:40:22;;;;;;;31.03;9.97;;;1.40;99.90;;;;;;10544853;28;20226;-79
2021/12/02 20:45:45;;;;;;;69.40;20.10;;;1.40;99.90;;;;;;10555835;28;20195;-79
2021/12/02 20:51:18;;;;;;;27.27;8.10;;;1.40;99.90;;;;;;10530434;28;20237;-78
2021/12/02 20:56:40;;;;;;;28.60;11.63;;;1.30;99.90;;;;;;10543928;28;20208;-80
2021/12/02 21:02:03;;;;;;;9.13;3.30;;;1.20;99.90;;;;;;10529912;28;20489;-78
2021/12/02 21:07:25;;;;;;;6.93;3.03;;;1.20;99.90;;;;;;10510493;28;20205;-80
2021/12/02 21:12:50;;;;;;;5.73;2.73;;;1.20;99.90;;;;;;10547013;28;20246;-78
2021/12/02 21:18:13;;;;;;;7.60;3.10;;;1.00;99.90;;;;;;10547243;28;20194;-77
2021/12/02 21:23:37;;;;;;;11.10;3.03;;;1.10;99.90;;;;;;10546774;28;20194;-78
2021/12/02 21:28:59;;;;;;;9.97;3.13;;;1.00;99.90;;;;;;10531678;28;20221;-78
2021/12/02 21:34:25;;;;;;;14.60;3.43;;;1.00;99.90;;;;;;10539644;28;20213;-77
2021/12/02 21:39:54;;;;;;;7.47;3.50;;;1.00;99.90;;;;;;10517424;28;20473;-79
2021/12/02 21:45:19;;;;;;;7.77;3.73;;;1.00;99.90;;;;;;10519657;28;20226;-78
2021/12/02 21:50:41;;;;;;;8.77;4.63;;;0.90;99.90;;;;;;10518544;28;20278;-79
2021/12/02 21:56:06;;;;;;;12.33;4.43;;;0.90;99.90;;;;;;10518345;28;20217;-78
2021/12/02 22:01:39;;;;;;;9.53;4.27;;;0.80;99.90;;;;;;10518557;28;20201;-78
2021/12/02 22:07:01;;;;;;;6.47;2.80;;;0.80;99.90;;;;;;10499288;28;20198;-77
2021/12/02 22:12:24;;;;;;;10.90;4.13;;;0.80;99.90;;;;;;10516871;28;20219;-78
2021/12/02 22:17:47;;;;;;;8.53;3.97;;;0.80;99.90;;;;;;10517766;28;20206;-77
2021/12/02 22:23:09;;;;;;;11.33;4.40;;;0.90;99.90;;;;;;10517994;28;20458;-80
2021/12/02 22:28:32;;;;;;;6.17;3.07;;;0.90;99.90;;;;;;10503292;28;20222;-77
2021/12/02 22:33:54;;;;;;;5.50;2.90;;;0.80;99.90;;;;;;10503520;28;20198;-79
2021/12/02 22:39:18;;;;;;;3.10;2.10;;;0.80;99.90;;;;;;10542874;28;20535;-78
2021/12/02 22:44:40;;;;;;;3.47;2.27;;;0.70;99.90;;;;;;10546706;28;20246;-77
2021/12/02 22:50:04;;;;;;;5.30;1.87;;;0.70;99.90;;;;;;10549697;28;20245;-79
2021/12/02 22:55:26;;;;;;;5.80;1.80;;;0.70;99.90;;;;;;10567319;28;20223;-78
2021/12/02 23:01:00;;;;;;;4.03;2.00;;;0.60;99.90;;;;;;10520655;28;20396;-76
2021/12/02 23:06:23;;;;;;;4.33;2.40;;;0.50;99.90;;;;;;10567104;28;20503;-77
2021/12/02 23:11:45;;;;;;;8.63;2.47;;;0.50;99.90;;;;;;10562931;28;20221;-78
2021/12/02 23:17:08;;;;;;;4.83;1.90;;;0.40;99.90;;;;;;10539118;28;20200;-79
2021/12/02 23:22:33;;;;;;;5.30;2.70;;;0.50;99.90;;;;;;10548282;28;20308;-80
2021/12/02 23:33:27;;;;;;;6.57;2.47;;;0.50;99.90;;;;;;10565864;28;20203;-78
2021/12/02 23:38:49;;;;;;;11.30;2.97;;;0.50;99.90;;;;;;10532428;28;20253;-77
2021/12/02 23:44:12;;;;;;;9.97;3.27;;;0.50;99.90;;;;;;10565632;28;20492;-77
2021/12/02 23:49:34;;;;;;;5.53;2.53;;;0.50;99.90;;;;;;10546729;28;20275;-77
2021/12/02 23:54:56;;;;;;;6.83;2.60;;;0.40;99.90;;;;;;10518839;28;20204;-78
